Time;durP1;ratioP1;P1;durP2;ratioP2;P2;SDS_P1;SDS_P2;PMS_P1;PMS_P2;Temp;Humidity;BMP_temperature;BMP_pressure;BME280_temperature;BME280_humidity;BME280_pressure;Samples;Min_cycle;Max_cycle;Signal;HPM_P1;HPM_P2
2022/04/09 00:01:59;;;;;;;12.65;7.13;;;;;;;6.72;100.00;97578.69;5024600;28;20468;-49
2022/04/09 00:04:43;;;;;;;11.25;6.93;;;;;;;6.72;100.00;97571.72;5024027;28;20144;-49
2022/04/09 00:07:27;;;;;;;12.52;7.85;;;;;;;6.71;100.00;97588.25;5024479;28;20049;-49
2022/04/09 00:10:12;;;;;;;13.55;8.38;;;;;;;6.68;100.00;97587.53;5023097;28;20049;-49
2022/04/09 00:12:57;;;;;;;12.30;7.53;;;;;;;6.63;100.00;97576.47;5023080;28;20045;-49
2022/04/09 00:15:41;;;;;;;14.63;8.55;;;;;;;6.58;100.00;97575.84;5024882;28;20038;-49
2022/04/09 00:18:26;;;;;;;13.52;7.40;;;;;;;6.55;100.00;97574.22;5023919;28;20046;-49
2022/04/09 00:21:11;;;;;;;12.57;7.78;;;;;;;6.59;100.00;97582.72;5024540;28;20045;-49
2022/04/09 00:23:57;;;;;;;13.15;8.65;;;;;;;6.58;100.00;97584.50;5023726;28;20065;-49
2022/04/09 00:26:41;;;;;;;16.15;8.25;;;;;;;6.56;100.00;97575.91;5024823;28;20043;-49
2022/04/09 00:29:26;;;;;;;14.25;7.32;;;;;;;6.54;100.00;97562.97;5023853;28;20041;-49
2022/04/09 00:32:10;;;;;;;16.27;8.07;;;;;;;6.52;100.00;97561.34;5021875;28;20408;-49
2022/04/09 00:34:54;;;;;;;13.93;8.25;;;;;;;6.51;100.00;97562.28;5023462;28;20033;-49
2022/04/09 00:37:46;;;;;;;12.45;7.50;;;;;;;6.56;100.00;97565.50;5024722;28;20040;-49
2022/04/09 00:40:30;;;;;;;12.75;7.55;;;;;;;6.49;100.00;97558.88;5024310;28;20550;-49
2022/04/09 00:43:16;;;;;;;14.52;8.00;;;;;;;6.46;100.00;97559.84;5023787;28;20050;-49
2022/04/09 00:46:00;;;;;;;14.60;7.95;;;;;;;6.44;100.00;97569.50;5023572;28;20507;-49
2022/04/09 00:48:45;;;;;;;11.60;8.38;;;;;;;6.44;100.00;97561.69;5022114;28;20764;-49
2022/04/09 00:51:30;;;;;;;10.95;8.25;;;;;;;6.40;100.00;97559.28;5024893;28;20045;-49
2022/04/09 00:54:15;;;;;;;12.63;7.57;;;;;;;6.38;100.00;97541.16;5023826;28;20034;-49
2022/04/09 00:57:03;;;;;;;8.02;6.00;;;;;;;6.37;100.00;97536.88;5023094;28;20057;-49
2022/04/09 00:59:50;;;;;;;10.02;7.00;;;;;;;6.37;100.00;97534.28;5020181;28;20049;-49
2022/04/09 01:02:40;;;;;;;10.20;6.75;;;;;;;6.40;100.00;97518.56;5022736;28;20057;-49
2022/04/09 01:05:26;;;;;;;20.00;10.48;;;;;;;6.40;100.00;97512.47;5022701;28;20045;-49
2022/04/09 01:08:12;;;;;;;21.33;11.07;;;;;;;6.41;100.00;97509.81;5022497;28;20041;-49
2022/04/09 01:10:57;;;;;;;19.40;10.68;;;;;;;6.38;100.00;97515.16;5024035;28;20049;-49
2022/04/09 01:13:46;;;;;;;15.57;8.88;;;;;;;6.45;100.00;97518.34;5022510;28;20045;-49
2022/04/09 01:16:32;;;;;;;12.93;6.80;;;;;;;6.37;100.00;97500.50;5024120;28;20136;-49
2022/04/09 01:19:17;;;;;;;12.05;7.15;;;;;;;6.41;100.00;97503.78;5026094;28;20098;-49
2022/04/09 01:22:03;;;;;;;14.43;7.30;;;;;;;6.43;100.00;97507.97;5026251;28;20045;-49
2022/04/09 01:24:48;;;;;;;11.07;6.28;;;;;;;6.46;100.00;97512.22;5025481;28;20060;-49
2022/04/09 01:27:33;;;;;;;12.40;7.03;;;;;;;6.44;100.00;97521.84;5026386;28;20121;-49
2022/04/09 01:30:18;;;;;;;12.68;6.53;;;;;;;6.44;100.00;97527.06;5026146;28;20080;-49
2022/04/09 01:33:03;;;;;;;12.35;7.38;;;;;;;6.43;100.00;97525.34;5025677;28;20048;-49
2022/04/09 01:35:49;;;;;;;12.10;7.03;;;;;;;6.44;100.00;97519.25;5027565;28;20041;-49
2022/04/09 01:38:36;;;;;;;11.35;7.28;;;;;;;6.45;100.00;97526.13;5024819;28;20675;-49
2022/04/09 01:41:21;;;;;;;13.00;6.57;;;;;;;6.47;100.00;97530.38;5025378;28;20057;-49
2022/04/09 01:44:20;;;;;;;14.93;7.80;;;;;;;6.45;100.00;97545.19;5024958;28;20053;-49
2022/04/09 01:47:05;;;;;;;14.73;8.60;;;;;;;6.39;100.00;97550.66;5026359;28;20041;-49
2022/04/09 01:49:49;;;;;;;14.38;8.43;;;;;;;6.41;100.00;97561.00;5025620;28;20060;-49
2022/04/09 01:52:34;;;;;;;11.73;7.70;;;;;;;6.42;100.00;97567.88;5025466;28;20045;-49
2022/04/09 01:55:18;;;;;;;11.52;7.50;;;;;;;6.41;100.00;97568.78;5027122;28;20108;-49
2022/04/09 01:58:05;;;;;;;12.60;7.60;;;;;;;6.10;100.00;97577.91;5025203;28;20057;-49
2022/04/09 02:00:58;;;;;;;9.10;7.35;;;;;;;6.18;100.00;97577.59;5025302;28;20053;-49
2022/04/09 02:03:45;;;;;;;11.77;8.52;;;;;;;6.17;100.00;97581.06;5025130;28;20735;-49
2022/04/09 02:06:29;;;;;;;12.60;8.82;;;;;;;6.03;100.00;97587.69;5026814;28;20141;-49
2022/04/09 02:09:14;;;;;;;15.18;9.95;;;;;;;6.09;100.00;97582.25;5026854;28;20692;-49
2022/04/09 02:12:00;;;;;;;14.48;9.93;;;;;;;5.99;100.00;97590.50;5024897;28;20072;-48
2022/04/09 02:14:45;;;;;;;13.65;8.25;;;;;;;6.11;100.00;97599.53;5025795;28;20054;-48
2022/04/09 02:17:29;;;;;;;12.27;8.80;;;;;;;6.10;100.00;97598.69;5027729;28;20037;-49
2022/04/09 02:20:14;;;;;;;15.38;10.35;;;;;;;6.13;100.00;97611.56;5025331;28;20065;-48
2022/04/09 02:22:59;;;;;;;15.52;10.43;;;;;;;6.01;100.00;97610.34;5025799;28;20053;-48
2022/04/09 02:25:44;;;;;;;14.75;9.45;;;;;;;6.05;100.00;97617.09;5024376;28;20053;-48
2022/04/09 02:28:31;;;;;;;15.18;8.77;;;;;;;6.04;100.00;97620.56;5025751;28;20132;-48
2022/04/09 02:31:17;;;;;;;14.57;9.60;;;;;;;6.06;100.00;97629.16;5025822;28;20045;-48
2022/04/09 02:34:04;;;;;;;13.85;9.82;;;;;;;6.00;100.00;97623.38;5026225;28;20124;-48
2022/04/09 02:36:50;;;;;;;9.70;6.45;;;;;;;5.88;100.00;97642.03;5024512;28;20042;-48
2022/04/09 02:39:35;;;;;;;6.15;4.13;;;;;;;5.79;100.00;97641.50;5025312;28;20041;-48
2022/04/09 02:42:20;;;;;;;6.68;4.18;;;;;;;5.74;100.00;97629.59;5025214;28;20057;-48
2022/04/09 02:45:05;;;;;;;7.50;3.33;;;;;;;5.66;100.00;97642.06;5026074;28;20077;-48
2022/04/09 02:47:51;;;;;;;7.15;4.55;;;;;;;5.55;100.00;97638.09;5024618;28;20780;-48
2022/04/09 02:50:39;;;;;;;6.57;4.72;;;;;;;5.39;100.00;97653.47;5023945;28;20065;-48
2022/04/09 02:53:23;;;;;;;7.05;3.85;;;;;;;5.48;100.00;97661.78;5024477;28;20284;-48
2022/04/09 02:56:09;;;;;;;5.15;4.13;;;;;;;5.23;100.00;97646.28;5025145;28;20038;-48
2022/04/09 02:58:56;;;;;;;5.22;3.97;;;;;;;5.20;100.00;97646.41;5024019;28;20380;-48
2022/04/09 03:01:45;;;;;;;5.13;3.30;;;;;;;5.08;100.00;97656.34;5024081;28;20064;-48
2022/04/09 03:04:31;;;;;;;7.78;3.53;;;;;;;4.96;100.00;97661.97;5024784;28;20041;-48
2022/04/09 03:07:15;;;;;;;8.80;4.35;;;;;;;4.98;100.00;97662.78;5022489;28;20045;-48
2022/04/09 03:10:00;;;;;;;7.22;4.00;;;;;;;4.89;100.00;97657.91;5024442;28;20116;-48
2022/04/09 03:12:46;;;;;;;6.20;3.40;;;;;;;4.73;100.00;97654.19;5023615;28;20053;-48
2022/04/09 03:15:33;;;;;;;4.68;3.22;;;;;;;4.77;100.00;97653.16;5024802;28;20288;-48
2022/04/09 03:18:19;;;;;;;8.73;3.80;;;;;;;4.66;100.00;97659.59;5023550;28;20088;-48
2022/04/09 03:21:04;;;;;;;5.18;3.97;;;;;;;4.73;100.00;97662.81;5024268;28;20045;-48
2022/04/09 03:23:51;;;;;;;9.75;6.97;;;;;;;4.68;100.00;97677.69;5024431;28;20055;-48
2022/04/09 03:26:37;;;;;;;12.02;6.97;;;;;;;4.55;100.00;97671.22;5024174;28;20041;-48
2022/04/09 03:29:21;;;;;;;11.75;6.97;;;;;;;4.54;100.00;97672.97;5024000;28;20038;-48
2022/04/09 03:32:07;;;;;;;11.18;7.38;;;;;;;4.58;100.00;97678.91;5024183;28;20057;-48
2022/04/09 03:34:54;;;;;;;12.40;6.80;;;;;;;4.50;100.00;97689.53;5023506;28;20044;-48
2022/04/09 03:37:44;;;;;;;19.13;14.88;;;;;;;4.41;100.00;97684.66;5023748;28;20427;-48
2022/04/09 03:40:28;;;;;;;18.92;12.73;;;;;;;4.50;100.00;97688.69;5024392;28;20061;-48
2022/04/09 03:43:12;;;;;;;16.17;8.23;;;;;;;4.47;100.00;97696.59;5023539;28;20480;-49
2022/04/09 03:45:58;;;;;;;12.73;6.85;;;;;;;4.50;100.00;97691.28;5024034;28;20132;-48
2022/04/09 03:48:43;;;;;;;15.98;7.88;;;;;;;4.49;100.00;97689.63;5022912;28;20488;-49
2022/04/09 03:51:29;;;;;;;15.15;7.25;;;;;;;4.48;100.00;97693.91;5023715;28;20041;-49
2022/04/09 03:54:14;;;;;;;14.70;8.27;;;;;;;4.45;100.00;97701.81;5023231;28;20488;-49
2022/04/09 03:56:59;;;;;;;11.13;6.05;;;;;;;4.54;100.00;97700.66;5025244;28;20140;-49
2022/04/09 03:59:57;;;;;;;17.95;8.38;;;;;;;4.45;100.00;97700.09;5024203;28;20049;-48
2022/04/09 04:02:42;;;;;;;11.32;6.43;;;;;;;4.40;100.00;97678.63;5023908;28;20033;-49
2022/04/09 04:05:32;;;;;;;11.55;6.50;;;;;;;4.40;100.00;97689.00;5024234;28;20049;-49
2022/04/09 04:08:17;;;;;;;9.32;5.65;;;;;;;4.47;100.00;97691.41;5023710;28;20103;-49
2022/04/09 04:11:02;;;;;;;10.15;5.28;;;;;;;4.36;100.00;97689.19;5023315;28;20720;-49
2022/04/09 04:13:50;;;;;;;8.80;6.03;;;;;;;4.32;100.00;97691.03;5024783;28;21379;-49
2022/04/09 04:16:36;;;;;;;9.52;6.55;;;;;;;4.29;100.00;97713.59;5022598;28;20048;-49
2022/04/09 04:19:20;;;;;;;8.90;5.95;;;;;;;4.34;100.00;97714.28;5023906;28;20052;-48
2022/04/09 04:22:08;;;;;;;9.95;6.03;;;;;;;4.33;100.00;97728.16;5023014;28;20041;-48
2022/04/09 04:24:53;;;;;;;9.80;5.40;;;;;;;4.31;100.00;97730.78;5023858;28;20499;-49
2022/04/09 04:27:47;;;;;;;7.78;5.47;;;;;;;4.20;100.00;97727.72;5024553;28;20116;-49
2022/04/09 04:30:32;;;;;;;14.05;6.07;;;;;;;4.29;100.00;97734.31;5024468;28;20384;-48
2022/04/09 04:33:18;;;;;;;9.77;5.68;;;;;;;4.36;100.00;97738.41;5023221;28;20075;-48
2022/04/09 04:36:09;;;;;;;9.93;5.53;;;;;;;4.28;100.00;97748.19;5023490;28;20103;-48
2022/04/09 04:38:58;;;;;;;8.32;5.88;;;;;;;4.26;100.00;97752.56;5023512;28;20057;-48
2022/04/09 04:41:43;;;;;;;10.32;6.78;;;;;;;4.29;100.00;97749.84;5021281;28;20037;-48
2022/04/09 04:44:28;;;;;;;10.30;6.00;;;;;;;4.33;100.00;97754.91;5019603;28;20057;-48
2022/04/09 04:47:16;;;;;;;9.85;6.57;;;;;;;4.32;100.00;97760.13;5020722;28;20049;-49
2022/04/09 04:50:04;;;;;;;12.77;5.38;;;;;;;4.30;100.00;97765.38;5021378;28;20056;-48
2022/04/09 04:52:50;;;;;;;9.02;5.47;;;;;;;4.24;100.00;97767.31;5023263;28;20136;-48
2022/04/09 04:55:36;;;;;;;9.75;6.65;;;;;;;4.25;100.00;97769.00;5024122;28;20476;-49
2022/04/09 04:58:21;;;;;;;11.35;6.55;;;;;;;4.27;100.00;97756.84;5026380;28;20057;-49
2022/04/09 05:01:11;;;;;;;11.80;6.78;;;;;;;4.30;100.00;97761.94;5024426;28;20053;-49
2022/04/09 05:04:01;;;;;;;8.98;5.93;;;;;;;4.33;100.00;97761.84;5024034;28;20053;-49
2022/04/09 05:06:50;;;;;;;11.77;5.32;;;;;;;4.31;100.00;97767.06;5026036;28;20400;-49
2022/04/09 05:09:37;;;;;;;9.45;5.03;;;;;;;4.43;100.00;97763.25;5026354;28;20500;-49
2022/04/09 05:12:23;;;;;;;7.50;5.57;;;;;;;4.44;100.00;97770.94;5024045;28;20065;-49
2022/04/09 05:15:10;;;;;;;7.03;5.03;;;;;;;4.62;100.00;97763.47;5026143;28;20076;-49
2022/04/09 05:17:55;;;;;;;7.78;4.75;;;;;;;4.66;100.00;97747.75;5026789;28;20037;-49
2022/04/09 05:20:41;;;;;;;10.18;6.65;;;;;;;4.74;100.00;97762.22;5021565;28;20151;-49
2022/04/09 05:23:28;;;;;;;8.93;5.80;;;;;;;4.75;100.00;97763.91;5021156;28;20045;-49
2022/04/09 05:26:13;;;;;;;11.82;6.90;;;;;;;4.74;100.00;97770.81;5020698;28;20634;-49
2022/04/09 05:29:00;;;;;;;13.27;5.43;;;;;;;4.85;100.00;97767.88;5022591;28;20041;-48
2022/04/09 05:31:47;;;;;;;11.32;6.07;;;;;;;4.85;100.00;97778.28;5022047;28;20127;-49
2022/04/09 05:34:33;;;;;;;11.93;6.90;;;;;;;5.04;100.00;97781.94;5023546;28;21433;-48
2022/04/09 05:37:17;;;;;;;8.88;6.15;;;;;;;5.07;100.00;97792.19;5022133;28;20053;-49
2022/04/09 05:40:05;;;;;;;10.50;6.50;;;;;;;5.09;100.00;97798.16;5022238;28;20613;-49
2022/04/09 05:42:51;;;;;;;8.68;5.80;;;;;;;5.20;100.00;97799.53;5023586;28;20045;-49
2022/04/09 05:45:36;;;;;;;11.10;6.43;;;;;;;5.35;100.00;97793.81;5021233;28;20049;-49
2022/04/09 05:48:21;;;;;;;18.02;9.75;;;;;;;5.22;100.00;97805.53;5025797;28;20057;-48
2022/04/09 05:51:11;;;;;;;10.68;6.88;;;;;;;5.39;100.00;97817.03;5025552;28;20369;-49
2022/04/09 05:54:00;;;;;;;11.20;6.18;;;;;;;5.44;100.00;97828.97;5024043;28;20049;-49
2022/04/09 05:56:47;;;;;;;9.25;5.45;;;;;;;5.60;100.00;97843.13;5027037;28;20420;-49
2022/04/09 05:59:31;;;;;;;9.85;6.53;;;;;;;5.68;100.00;97848.03;5023120;28;20037;-50
2022/04/09 06:02:17;;;;;;;10.38;5.70;;;;;;;5.51;100.00;97859.03;5021115;28;20099;-49
2022/04/09 06:05:03;;;;;;;8.65;5.43;;;;;;;5.69;100.00;97871.34;5022568;28;20064;-49
2022/04/09 06:07:48;;;;;;;8.60;6.57;;;;;;;5.65;100.00;97874.94;5022750;28;20053;-49
2022/04/09 06:10:36;;;;;;;6.47;4.15;;;;;;;5.57;100.00;97879.59;5022276;28;20049;-49
2022/04/09 06:13:21;;;;;;;7.20;4.93;;;;;;;5.56;100.00;97889.13;5022498;28;20057;-49
2022/04/09 06:16:08;;;;;;;8.98;4.63;;;;;;;5.43;100.00;97898.25;5022477;28;20068;-49
2022/04/09 06:18:55;;;;;;;9.60;5.50;;;;;;;5.47;100.00;97883.41;5023027;28;20049;-49
2022/04/09 06:21:39;;;;;;;16.77;6.03;;;;;;;5.43;100.00;97899.97;5024008;28;20049;-49
2022/04/09 06:24:26;;;;;;;7.95;5.20;;;;;;;5.53;100.00;97914.34;5022788;28;20045;-49
2022/04/09 06:27:12;;;;;;;10.23;5.28;;;;;;;5.78;100.00;97919.53;5025377;28;20049;-49
2022/04/09 06:29:57;;;;;;;9.82;5.15;;;;;;;5.79;100.00;97929.88;5026464;28;20045;-49
2022/04/09 06:32:41;;;;;;;10.88;5.68;;;;;;;5.79;100.00;97931.63;5025257;28;20049;-49
2022/04/09 06:35:27;;;;;;;7.63;4.18;;;;;;;5.85;100.00;97932.25;5027102;28;20464;-49
2022/04/09 06:38:12;;;;;;;12.02;6.47;;;;;;;5.83;100.00;97943.59;5025177;28;20057;-49
2022/04/09 06:40:57;;;;;;;9.10;4.78;;;;;;;6.00;100.00;97950.81;5024334;28;20068;-49
2022/04/09 06:43:49;;;;;;;10.48;5.45;;;;;;;5.92;100.00;97958.03;5025029;28;20065;-50
2022/04/09 06:46:43;;;;;;;9.50;4.65;;;;;;;5.92;100.00;97979.66;5024387;28;20048;-49
2022/04/09 06:49:33;;;;;;;7.72;4.43;;;;;;;6.07;100.00;98005.13;5025284;28;20038;-49
2022/04/09 06:52:34;;;;;;;9.27;5.13;;;;;;;5.97;100.00;98008.94;5023950;28;20406;-49
2022/04/09 06:55:24;;;;;;;9.48;5.05;;;;;;;5.90;100.00;98017.84;5023359;28;20053;-49
2022/04/09 06:58:10;;;;;;;10.57;6.47;;;;;;;5.94;100.00;98026.41;5023720;28;20053;-49
2022/04/09 07:00:54;;;;;;;19.95;13.25;;;;;;;5.88;100.00;98024.81;5024493;28;20057;-49
2022/04/09 07:03:39;;;;;;;18.48;12.50;;;;;;;6.04;100.00;98030.38;5023344;28;20096;-49
2022/04/09 07:06:23;;;;;;;24.63;16.45;;;;;;;5.89;100.00;98052.53;5023790;28;20057;-49
2022/04/09 07:09:08;;;;;;;12.50;8.98;;;;;;;6.21;100.00;98064.44;5024576;28;20727;-50
2022/04/09 07:11:53;;;;;;;70.78;47.13;;;;;;;6.08;100.00;98069.22;5023559;28;20049;-49
2022/04/09 07:14:37;;;;;;;36.53;30.27;;;;;;;6.04;100.00;98083.19;5022287;28;20045;-49
2022/04/09 07:17:22;;;;;;;13.02;7.68;;;;;;;6.27;100.00;98092.84;5023308;28;20049;-50
2022/04/09 07:20:08;;;;;;;10.98;7.90;;;;;;;6.27;100.00;98111.03;5020644;28;20056;-49
2022/04/09 07:22:52;;;;;;;11.90;6.03;;;;;;;6.20;100.00;98111.28;5023345;28;20081;-49
2022/04/09 07:25:37;;;;;;;8.52;5.68;;;;;;;6.08;100.00;98121.22;5023612;28;20189;-49
2022/04/09 07:28:21;;;;;;;8.85;5.32;;;;;;;6.19;100.00;98127.78;5026369;28;20049;-49
2022/04/09 07:31:06;;;;;;;7.72;4.57;;;;;;;6.28;100.00;98132.69;5026381;28;20076;-49
2022/04/09 07:33:50;;;;;;;9.00;4.00;;;;;;;6.32;100.00;98144.66;5024740;28;20120;-49
2022/04/09 07:36:35;;;;;;;7.93;4.45;;;;;;;6.44;100.00;98138.22;5029073;28;20053;-49
2022/04/09 07:39:19;;;;;;;8.68;4.57;;;;;;;6.43;100.00;98142.53;5030322;28;20049;-50
2022/04/09 07:42:04;;;;;;;9.35;4.78;;;;;;;6.68;100.00;98152.09;5026601;28;20037;-50
2022/04/09 07:44:49;;;;;;;8.63;5.25;;;;;;;6.81;100.00;98152.50;5026794;28;20064;-49
2022/04/09 07:47:34;;;;;;;17.85;15.13;;;;;;;7.00;100.00;98156.13;5023483;28;20062;-49
2022/04/09 07:50:18;;;;;;;165.32;75.18;;;;;;;7.12;100.00;98165.25;5024663;28;20053;-49
2022/04/09 07:53:03;;;;;;;118.18;56.20;;;;;;;6.94;100.00;98166.78;5021709;28;20060;-49
2022/04/09 07:55:47;;;;;;;10.75;5.40;;;;;;;6.87;100.00;98167.91;5021691;28;20053;-50
2022/04/09 07:58:32;;;;;;;9.50;4.43;;;;;;;7.15;100.00;98162.50;5021886;28;20076;-49
2022/04/09 08:01:17;;;;;;;16.05;6.75;;;;;;;7.19;100.00;98166.72;5021128;28;20049;-49
2022/04/09 08:04:02;;;;;;;8.10;3.85;;;;;;;7.31;100.00;98179.25;5018626;28;20057;-49
2022/04/09 08:06:47;;;;;;;8.98;5.05;;;;;;;7.50;100.00;98179.41;5017077;28;20053;-50
2022/04/09 08:09:32;;;;;;;6.97;3.22;;;;;;;7.67;100.00;98179.63;5017309;28;20033;-50
2022/04/09 08:12:16;;;;;;;6.93;3.00;;;;;;;7.50;100.00;98179.41;5015732;28;20049;-50
2022/04/09 08:15:01;;;;;;;7.28;4.13;;;;;;;7.72;100.00;98179.44;5020070;28;20046;-50
2022/04/09 08:17:46;;;;;;;12.98;3.90;;;;;;;8.03;100.00;98197.34;5019547;28;20168;-49
2022/04/09 08:20:30;;;;;;;7.40;3.08;;;;;;;7.89;100.00;98190.03;5021929;28;20079;-49
2022/04/09 08:23:15;;;;;;;6.88;3.13;;;;;;;8.12;100.00;98203.91;5018127;28;20156;-50
2022/04/09 08:26:00;;;;;;;9.77;4.10;;;;;;;8.55;100.00;98205.66;5019634;28;20069;-50
2022/04/09 08:28:45;;;;;;;6.53;3.08;;;;;;;8.74;100.00;98218.78;5017455;28;20124;-50
2022/04/09 08:31:29;;;;;;;8.07;3.33;;;;;;;8.77;100.00;98218.63;5020300;28;20139;-50
2022/04/09 08:34:16;;;;;;;6.47;2.42;;;;;;;8.80;100.00;98209.81;5018621;28;20061;-50
2022/04/09 08:37:02;;;;;;;10.98;2.55;;;;;;;9.05;100.00;98222.66;5019213;28;20124;-49
2022/04/09 08:39:46;;;;;;;7.80;2.55;;;;;;;9.37;100.00;98221.22;5019740;28;20059;-50
2022/04/09 08:42:32;;;;;;;12.90;2.60;;;;;;;9.10;100.00;98221.56;5020763;28;20056;-50
2022/04/09 08:45:17;;;;;;;9.90;3.08;;;;;;;8.84;100.00;98225.31;5021107;28;20045;-49
2022/04/09 08:48:05;;;;;;;8.63;2.95;;;;;;;8.66;100.00;98236.50;5019023;28;20140;-50
2022/04/09 08:50:51;;;;;;;6.25;2.05;;;;;;;8.63;100.00;98237.47;5020531;28;20372;-50
2022/04/09 08:53:37;;;;;;;7.20;2.85;;;;;;;9.12;100.00;98227.53;5020010;28;20088;-50
2022/04/09 08:56:21;;;;;;;10.00;2.53;;;;;;;9.10;100.00;98221.56;5021012;28;20081;-50
2022/04/09 08:59:06;;;;;;;6.78;2.17;;;;;;;9.02;100.00;98243.69;5020722;28;20049;-49
2022/04/09 09:01:51;;;;;;;3.85;1.55;;;;;;;8.58;100.00;98255.13;5020537;28;20049;-50
2022/04/09 09:04:35;;;;;;;5.38;1.83;;;;;;;8.57;100.00;98266.44;5019708;28;20082;-49
2022/04/09 09:07:23;;;;;;;3.85;1.70;;;;;;;8.77;100.00;98280.44;5019548;28;20052;-50
2022/04/09 09:10:16;;;;;;;5.50;1.80;;;;;;;9.16;100.00;98293.53;5020085;28;20053;-50
2022/04/09 09:13:10;;;;;;;23.73;19.23;;;;;;;8.86;100.00;98306.16;5018723;28;20081;-50
2022/04/09 09:15:55;;;;;;;11.48;6.22;;;;;;;8.71;99.57;98310.28;5018052;28;20049;-50
2022/04/09 09:18:40;;;;;;;152.20;91.68;;;;;;;8.45;100.00;98313.94;5019321;28;20065;-50
2022/04/09 09:21:27;;;;;;;26.17;14.15;;;;;;;8.55;97.88;98328.31;5018100;28;20366;-51
2022/04/09 09:24:16;;;;;;;40.45;21.48;;;;;;;8.79;96.36;98329.06;5019680;28;20049;-50
2022/04/09 09:27:02;;;;;;;19.73;12.68;;;;;;;9.28;97.88;98334.81;5019114;28;20049;-51
2022/04/09 09:29:53;;;;;;;14.82;9.20;;;;;;;9.45;95.52;98331.47;5021318;28;20096;-51
2022/04/09 09:32:41;;;;;;;12.43;7.13;;;;;;;9.77;95.07;98324.81;5019945;28;20495;-50
2022/04/09 09:35:25;;;;;;;4.05;2.90;;;;;;;9.87;90.39;98320.03;5022422;28;20041;-51
2022/04/09 09:38:19;;;;;;;25.08;18.05;;;;;;;9.78;86.40;98323.03;5024960;28;20683;-50
2022/04/09 09:41:03;;;;;;;5.68;2.17;;;;;;;9.52;81.95;98346.00;5025500;28;20049;-50
2022/04/09 09:44:00;;;;;;;5.75;2.30;;;;;;;9.37;84.82;98346.66;5024020;28;20062;-51
2022/04/09 09:46:47;;;;;;;4.35;0.88;;;;;;;9.56;81.64;98344.09;5008942;28;20088;-51
2022/04/09 09:49:37;;;;;;;2.95;1.40;;;;;;;9.58;79.41;98356.16;5024948;28;20061;-51
2022/04/09 09:52:36;;;;;;;2.17;0.90;;;;;;;9.76;72.47;98351.91;5025247;28;20057;-50
2022/04/09 09:55:24;;;;;;;9.18;4.97;;;;;;;9.66;74.64;98358.44;5025335;28;20033;-50
2022/04/09 09:58:13;;;;;;;8.40;2.72;;;;;;;9.75;71.61;98355.44;5024377;28;20129;-51
2022/04/09 10:00:58;;;;;;;6.72;4.47;;;;;;;9.83;71.24;98369.00;5025691;28;20049;-50
2022/04/09 10:03:43;;;;;;;8.10;1.88;;;;;;;9.85;66.66;98371.56;5025065;28;20041;-50
2022/04/09 10:06:28;;;;;;;4.40;1.73;;;;;;;9.88;64.04;98370.56;5024765;28;20050;-50
2022/04/09 10:09:18;;;;;;;5.63;1.80;;;;;;;9.56;61.44;98375.47;5026343;28;20057;-50
2022/04/09 10:12:07;;;;;;;8.57;3.38;;;;;;;9.91;63.19;98375.66;5025922;28;20056;-50
2022/04/09 10:14:59;;;;;;;3.60;1.98;;;;;;;10.06;63.74;98386.28;5025260;28;20116;-51
2022/04/09 10:17:43;;;;;;;3.50;1.55;;;;;;;9.98;63.84;98395.41;5025757;28;20037;-49
2022/04/09 10:20:29;;;;;;;5.93;1.10;;;;;;;10.10;65.41;98384.34;5025810;28;20053;-51
2022/04/09 10:23:15;;;;;;;1.88;0.98;;;;;;;10.11;64.95;98413.97;5025866;28;20047;-51
2022/04/09 10:26:01;;;;;;;4.53;1.83;;;;;;;9.99;63.26;98404.94;5025388;28;20144;-50
2022/04/09 10:28:49;;;;;;;3.83;1.48;;;;;;;10.43;65.73;98412.53;5026195;28;20049;-50
2022/04/09 10:31:36;;;;;;;4.78;1.48;;;;;;;10.45;63.54;98424.66;5025484;28;20037;-51
2022/04/09 10:34:21;;;;;;;3.25;1.08;;;;;;;10.47;63.03;98424.59;5025780;28;20053;-51
2022/04/09 10:37:05;;;;;;;4.60;2.25;;;;;;;10.65;62.58;98425.50;5025873;28;20049;-50
2022/04/09 10:39:52;;;;;;;9.85;2.92;;;;;;;10.38;59.49;98433.72;5027272;28;20049;-51
2022/04/09 10:42:49;;;;;;;17.40;7.68;;;;;;;10.54;60.72;98449.56;5025866;28;20077;-50
2022/04/09 10:46:02;;;;;;;13.75;9.35;;;;;;;10.37;57.89;98442.50;5024212;28;20037;-50
2022/04/09 10:48:48;;;;;;;3.67;1.88;;;;;;;10.41;58.03;98451.03;5024516;28;20045;-51
2022/04/09 10:52:19;;;;;;;11.95;7.50;;;;;;;10.56;57.58;98452.09;5024989;28;20041;-51
2022/04/09 10:55:10;;;;;;;4.18;1.67;;;;;;;10.74;57.66;98457.31;5024573;28;20137;-51
2022/04/09 10:58:00;;;;;;;12.05;6.20;;;;;;;10.95;58.68;98457.22;5025258;28;20542;-51
2022/04/09 11:00:46;;;;;;;10.95;4.20;;;;;;;11.07;58.34;98461.88;5025500;28;20563;-50
2022/04/09 11:03:33;;;;;;;3.60;1.50;;;;;;;10.80;57.56;98471.06;5024509;28;20118;-51
2022/04/09 11:06:44;;;;;;;28.17;15.70;;;;;;;10.68;55.88;98475.09;5025524;28;20045;-50
2022/04/09 11:09:51;;;;;;;16.67;9.85;;;;;;;10.68;54.68;98473.31;5023695;28;20567;-50
2022/04/09 11:12:38;;;;;;;9.65;6.32;;;;;;;10.77;53.48;98470.28;5024830;28;20053;-51
2022/04/09 11:15:23;;;;;;;4.20;1.70;;;;;;;11.14;54.11;98471.13;5024651;28;20385;-51
2022/04/09 11:18:08;;;;;;;6.97;1.58;;;;;;;11.00;53.15;98474.44;5021215;28;20080;-50
2022/04/09 11:20:53;;;;;;;5.00;1.73;;;;;;;10.92;55.34;98480.94;5021734;28;20042;-51
2022/04/09 11:23:37;;;;;;;2.13;1.20;;;;;;;11.11;54.07;98484.38;5023594;28;20148;-51
2022/04/09 11:26:26;;;;;;;1.95;0.60;;;;;;;11.07;53.19;98469.75;5023699;28;20038;-50
2022/04/09 11:29:11;;;;;;;1.70;0.60;;;;;;;11.17;53.99;98473.59;5023859;28;20088;-51
2022/04/09 11:31:55;;;;;;;2.40;0.90;;;;;;;11.27;50.94;98481.88;5024273;28;20483;-52
2022/04/09 11:34:50;;;;;;;4.35;1.17;;;;;;;11.41;52.00;98483.84;5022960;28;20054;-51
2022/04/09 11:37:40;;;;;;;3.90;1.30;;;;;;;11.42;49.33;98489.00;5022917;28;20049;-51
2022/04/09 11:40:28;;;;;;;2.42;2.03;;;;;;;11.17;49.94;98486.72;5006931;28;20599;-51
2022/04/09 11:43:18;;;;;;;3.45;2.20;;;;;;;11.30;52.09;98481.72;5021058;28;20530;-51
2022/04/09 11:46:04;;;;;;;1.83;0.93;;;;;;;11.90;50.36;98473.53;5003206;28;20044;-51
2022/04/09 11:48:58;;;;;;;3.03;1.60;;;;;;;12.24;47.28;98480.47;5020826;28;20081;-52
2022/04/09 11:51:52;;;;;;;9.40;4.20;;;;;;;12.02;45.08;98486.00;5021572;28;20431;-52
2022/04/09 11:54:43;;;;;;;12.32;5.28;;;;;;;11.69;47.45;98478.88;5022197;28;20057;-51
2022/04/09 11:57:27;;;;;;;14.18;8.02;;;;;;;11.68;49.40;98486.84;5022166;28;20595;-50
2022/04/09 12:00:13;;;;;;;41.33;23.95;;;;;;;11.51;48.97;98494.72;5021399;28;20049;-50
2022/04/09 12:03:05;;;;;;;13.00;6.68;;;;;;;11.63;51.20;98492.34;5021692;28;20092;-51
2022/04/09 12:05:51;;;;;;;11.05;4.32;;;;;;;11.92;52.13;98490.88;5022354;28;20540;-51
2022/04/09 12:08:36;;;;;;;6.15;4.40;;;;;;;12.36;50.13;98503.47;5021169;28;20042;-51
2022/04/09 12:11:21;;;;;;;12.20;6.60;;;;;;;12.45;49.22;98512.63;5022072;28;20041;-50
2022/04/09 12:14:10;;;;;;;6.00;4.05;;;;;;;12.83;49.36;98504.44;5020212;28;20050;-50
2022/04/09 12:16:55;;;;;;;13.23;7.07;;;;;;;12.80;47.39;98510.75;5020895;28;20046;-51
2022/04/09 12:19:44;;;;;;;66.22;35.08;;;;;;;13.09;45.82;98510.91;5020569;28;20041;-51
2022/04/09 12:22:30;;;;;;;21.55;10.52;;;;;;;13.10;41.90;98513.47;5022246;28;20056;-50
2022/04/09 12:25:34;;;;;;;3.55;2.22;;;;;;;13.23;40.84;98513.63;5022084;28;20065;-51
2022/04/09 12:28:24;;;;;;;12.38;9.25;;;;;;;13.28;40.75;98527.38;5019891;28;20049;-51
2022/04/09 12:31:23;;;;;;;6.78;4.07;;;;;;;13.16;39.31;98528.06;5022231;28;20045;-51
2022/04/09 12:34:08;;;;;;;5.25;2.42;;;;;;;12.93;39.63;98526.66;5022154;28;20116;-51
2022/04/09 12:37:05;;;;;;;9.57;5.07;;;;;;;12.65;37.44;98529.13;5022959;28;20041;-51
2022/04/09 12:40:11;;;;;;;13.32;6.22;;;;;;;11.91;39.85;98532.94;5022353;28;20179;-50
2022/04/09 12:42:56;;;;;;;3.33;2.08;;;;;;;11.85;38.33;98530.63;5020356;28;20431;-51
2022/04/09 12:45:43;;;;;;;7.40;3.42;;;;;;;12.10;39.63;98533.69;5021332;28;20063;-52
2022/04/09 12:48:39;;;;;;;20.25;6.88;;;;;;;11.97;40.07;98543.13;5019305;28;20053;-51
2022/04/09 12:51:25;;;;;;;14.65;7.47;;;;;;;11.84;38.98;98545.50;5018464;28;20925;-51
2022/04/09 12:54:09;;;;;;;4.75;2.13;;;;;;;11.57;40.28;98542.47;5017007;28;20048;-50
2022/04/09 12:56:55;;;;;;;4.85;2.47;;;;;;;11.05;41.53;98534.47;5018460;28;20049;-52
2022/04/09 12:59:40;;;;;;;6.65;2.90;;;;;;;11.02;42.46;98541.63;5016137;28;20480;-51
2022/04/09 13:02:25;;;;;;;6.68;2.50;;;;;;;10.89;41.35;98555.31;5016604;28;20075;-51